Time;durP1;ratioP1;P1;durP2;ratioP2;P2;SDS_P1;SDS_P2;PMS_P1;PMS_P2;Temp;Humidity;BMP_temperature;BMP_pressure;BME280_temperature;BME280_humidity;BME280_pressure;Samples;Min_cycle;Max_cycle;Signal;HPM_P1;HPM_P2
2023/04/26 00:00:25;;;;;;;5.32;2.58;;;20.10;63.50;;;;;;4942244;28;89284;-90
2023/04/26 00:02:52;;;;;;;4.47;2.40;;;20.10;62.80;;;;;;4927426;28;89724;-92
2023/04/26 00:05:18;;;;;;;4.88;2.30;;;20.10;62.80;;;;;;4926411;28;88602;-90
2023/04/26 00:14:27;;;;;;;3.63;2.08;;;20.10;62.70;;;;;;4943515;28;87202;-90
2023/04/26 00:16:53;;;;;;;3.65;1.60;;;20.00;62.50;;;;;;4932449;28;87484;-91
2023/04/26 00:19:18;;;;;;;3.15;2.00;;;20.00;63.50;;;;;;4963286;28;89039;-90
2023/04/26 00:21:44;;;;;;;2.42;1.90;;;20.00;62.70;;;;;;4945840;28;91499;-91
2023/04/26 00:24:10;;;;;;;5.15;2.60;;;20.00;62.60;;;;;;4946268;28;90837;-91
2023/04/26 00:26:36;;;;;;;4.65;2.53;;;20.00;62.60;;;;;;4946809;28;87053;-91
2023/04/26 00:29:03;;;;;;;3.03;2.13;;;20.00;62.50;;;;;;4962594;28;90057;-91
2023/04/26 00:31:29;;;;;;;3.72;2.10;;;20.00;62.70;;;;;;4943481;28;92902;-91
2023/04/26 00:33:54;;;;;;;3.85;2.00;;;20.00;62.60;;;;;;4960168;28;90883;-90
2023/04/26 00:36:20;;;;;;;3.75;2.30;;;19.90;62.60;;;;;;4960516;28;87009;-92
2023/04/26 00:38:46;;;;;;;3.08;1.70;;;19.90;62.70;;;;;;4951580;28;89065;-91
2023/04/26 00:41:12;;;;;;;2.28;1.50;;;19.90;62.60;;;;;;4959764;28;91465;-91
2023/04/26 00:43:38;;;;;;;3.53;1.95;;;19.90;62.40;;;;;;4960439;28;91164;-91
2023/04/26 00:46:05;;;;;;;4.90;2.00;;;19.90;62.60;;;;;;4961602;28;86989;-90
2023/04/26 00:48:31;;;;;;;3.78;2.10;;;19.90;62.50;;;;;;4960692;28;89236;-93
2023/04/26 00:50:57;;;;;;;2.22;1.90;;;19.90;62.50;;;;;;4933299;28;89212;-90
2023/04/26 00:53:23;;;;;;;3.00;1.80;;;19.90;62.60;;;;;;4916518;28;89393;-89
2023/04/26 00:59:10;;;;;;;3.70;2.03;;;19.90;62.40;;;;;;4931760;28;86998;-92
2023/04/26 01:01:36;;;;;;;3.35;2.08;;;19.90;62.60;;;;;;4915045;28;91370;-91
2023/04/26 01:04:03;;;;;;;3.72;2.25;;;19.90;62.40;;;;;;4934059;28;90912;-91
2023/04/26 01:06:33;;;;;;;3.38;1.92;;;19.80;62.40;;;;;;4917540;28;87223;-92
2023/04/26 01:09:03;;;;;;;3.17;1.90;;;19.80;62.30;;;;;;4901961;28;89047;-91
2023/04/26 01:11:30;;;;;;;3.58;1.77;;;19.80;62.50;;;;;;4887345;28;91572;-91
2023/04/26 01:13:57;;;;;;;2.47;1.70;;;19.80;62.60;;;;;;4888466;28;89984;-90
2023/04/26 01:16:23;;;;;;;2.35;1.80;;;19.80;62.40;;;;;;4891526;28;87032;-91
2023/04/26 01:18:53;;;;;;;2.42;1.75;;;19.80;62.60;;;;;;4906448;28;89343;-89
2023/04/26 01:21:24;;;;;;;3.75;2.00;;;19.80;62.40;;;;;;4920737;28;91388;-90
2023/04/26 01:23:51;;;;;;;2.25;1.77;;;19.80;62.40;;;;;;4914567;28;91257;-90
2023/04/26 01:26:17;;;;;;;4.25;1.98;;;19.80;62.50;;;;;;4922658;28;87264;-90
2023/04/26 01:28:45;;;;;;;2.88;1.70;;;19.80;62.50;;;;;;4921662;28;91150;-91
2023/04/26 01:31:11;;;;;;;3.70;1.88;;;19.70;62.40;;;;;;4922665;28;91269;-91
2023/04/26 01:33:36;;;;;;;3.00;1.83;;;19.70;62.20;;;;;;4922340;28;90537;-91
2023/04/26 01:36:06;;;;;;;3.00;1.85;;;19.70;62.20;;;;;;4914222;28;87509;-91
2023/04/26 01:38:32;;;;;;;2.53;1.55;;;19.70;62.30;;;;;;4922768;28;89622;-91
2023/04/26 01:40:57;;;;;;;3.30;1.80;;;19.70;62.40;;;;;;4937219;28;90062;-90
2023/04/26 01:43:23;;;;;;;3.00;1.80;;;19.70;62.30;;;;;;4940448;28;91314;-89
2023/04/26 01:45:49;;;;;;;2.78;1.98;;;19.70;62.30;;;;;;4939336;28;88109;-90
2023/04/26 01:48:15;;;;;;;2.75;2.03;;;19.70;62.30;;;;;;4938865;28;89286;-90
2023/04/26 01:50:41;;;;;;;2.65;1.50;;;19.70;62.20;;;;;;4940046;28;90371;-90
2023/04/26 01:53:06;;;;;;;3.60;2.00;;;19.60;62.10;;;;;;4939053;28;91165;-89
2023/04/26 01:55:35;;;;;;;2.13;1.45;;;19.60;62.30;;;;;;4931521;28;87395;-89
2023/04/26 01:58:00;;;;;;;2.75;1.73;;;19.60;62.30;;;;;;4931929;28;90404;-90
2023/04/26 02:00:28;;;;;;;3.13;1.80;;;19.60;62.10;;;;;;4939643;28;90195;-89
2023/04/26 02:02:54;;;;;;;2.30;1.67;;;19.60;62.10;;;;;;4939620;28;90056;-89
2023/04/26 02:05:21;;;;;;;3.17;1.83;;;19.60;62.30;;;;;;4938682;28;89415;-90
2023/04/26 02:07:47;;;;;;;2.08;1.50;;;19.60;62.00;;;;;;4938779;28;89385;-92
2023/04/26 02:10:12;;;;;;;2.63;1.85;;;19.60;62.00;;;;;;4939335;28;91193;-89
2023/04/26 02:12:38;;;;;;;2.50;1.73;;;19.60;61.90;;;;;;4938144;28;92024;-91
2023/04/26 02:15:05;;;;;;;2.90;1.83;;;19.60;61.90;;;;;;4930404;28;87335;-89
2023/04/26 02:17:32;;;;;;;3.35;1.73;;;19.60;62.20;;;;;;4943398;28;90241;-90
2023/04/26 02:19:58;;;;;;;2.45;1.70;;;19.60;62.10;;;;;;4948228;28;90067;-91
2023/04/26 02:22:25;;;;;;;2.38;1.50;;;19.60;62.00;;;;;;4911161;28;88417;-90
2023/04/26 02:24:51;;;;;;;2.83;1.83;;;19.60;62.00;;;;;;4904663;28;87646;-90
2023/04/26 02:27:18;;;;;;;2.63;1.65;;;19.60;61.90;;;;;;4904164;28;88194;-91
2023/04/26 02:29:45;;;;;;;2.45;1.77;;;19.50;61.90;;;;;;4912195;28;90098;-92
2023/04/26 02:32:12;;;;;;;2.45;1.60;;;19.50;61.90;;;;;;4911421;28;88180;-90
2023/04/26 02:34:38;;;;;;;2.22;1.70;;;19.50;61.90;;;;;;4895578;28;88017;-91
2023/04/26 02:37:03;;;;;;;2.60;1.60;;;19.50;61.90;;;;;;4904200;28;89764;-91
2023/04/26 02:39:30;;;;;;;1.70;1.40;;;19.50;61.90;;;;;;4903587;28;91736;-91
2023/04/26 02:41:56;;;;;;;3.75;1.88;;;19.50;61.80;;;;;;4895980;28;90066;-90
2023/04/26 02:44:22;;;;;;;4.22;2.00;;;19.50;62.00;;;;;;4910879;28;87514;-91
2023/04/26 02:46:47;;;;;;;2.33;1.67;;;19.50;61.90;;;;;;4904150;28;88971;-92
2023/04/26 02:49:13;;;;;;;1.58;1.30;;;19.50;61.80;;;;;;4898517;28;91322;-92
2023/04/26 02:51:39;;;;;;;2.45;1.60;;;19.50;61.70;;;;;;4893657;28;90877;-91
2023/04/26 02:54:05;;;;;;;1.80;1.13;;;19.50;61.80;;;;;;4923702;28;86840;-91
2023/04/26 02:56:30;;;;;;;1.73;1.42;;;19.50;61.60;;;;;;4948045;28;90097;-91
2023/04/26 02:58:56;;;;;;;2.90;1.65;;;19.50;61.70;;;;;;4947049;28;91659;-91
2023/04/26 03:01:22;;;;;;;1.98;1.30;;;19.40;61.70;;;;;;4940139;28;92643;-90
2023/04/26 03:03:48;;;;;;;4.90;1.85;;;19.40;61.70;;;;;;4939646;28;87356;-91
2023/04/26 03:06:13;;;;;;;2.58;1.52;;;19.40;61.80;;;;;;4948623;28;89452;-91
2023/04/26 03:08:39;;;;;;;2.13;1.70;;;19.40;61.70;;;;;;4946271;28;90485;-90
2023/04/26 03:11:05;;;;;;;3.00;1.60;;;19.40;61.70;;;;;;4948493;28;90643;-92
2023/04/26 03:13:31;;;;;;;2.28;1.40;;;19.40;61.60;;;;;;4948650;28;87079;-91
2023/04/26 03:15:57;;;;;;;2.08;1.35;;;19.40;61.60;;;;;;4931322;28;88761;-90
2023/04/26 03:18:22;;;;;;;2.45;1.77;;;19.30;61.50;;;;;;4958263;28;90417;-91
2023/04/26 03:20:48;;;;;;;2.85;1.88;;;19.30;61.70;;;;;;4943815;28;90115;-90
2023/04/26 03:23:14;;;;;;;2.45;1.45;;;19.40;61.60;;;;;;4943010;28;88386;-92
2023/04/26 03:25:39;;;;;;;2.42;1.35;;;19.30;61.60;;;;;;4935080;28;89349;-92
2023/04/26 03:28:05;;;;;;;3.30;1.88;;;19.30;61.60;;;;;;4944398;28;90945;-91
2023/04/26 03:30:31;;;;;;;2.47;1.70;;;19.30;61.60;;;;;;4958688;28;89581;-91
2023/04/26 03:32:56;;;;;;;2.92;1.83;;;19.30;61.60;;;;;;4943429;28;87281;-90
2023/04/26 03:35:22;;;;;;;2.35;1.50;;;19.30;61.80;;;;;;4942934;28;90139;-91
2023/04/26 03:37:48;;;;;;;1.70;1.42;;;19.30;61.10;;;;;;4943357;28;92007;-91
2023/04/26 03:40:15;;;;;;;2.60;1.30;;;19.30;61.10;;;;;;4944721;28;90761;-90
2023/04/26 03:42:41;;;;;;;2.63;1.63;;;19.30;61.10;;;;;;4943642;28;87506;-90
2023/04/26 03:45:07;;;;;;;2.35;1.52;;;19.30;61.20;;;;;;4943521;28;90246;-90
2023/04/26 03:47:33;;;;;;;3.08;1.63;;;19.20;61.10;;;;;;4929813;28;90881;-90
2023/04/26 03:50:05;;;;;;;2.15;1.38;;;19.20;61.10;;;;;;4927583;28;90126;-90
2023/04/26 03:52:31;;;;;;;2.60;2.00;;;19.30;61.10;;;;;;4941725;28;87058;-89
2023/04/26 03:54:57;;;;;;;1.70;1.50;;;19.20;61.00;;;;;;4943636;28;88727;-91
2023/04/26 03:57:22;;;;;;;3.30;1.77;;;19.30;61.00;;;;;;4942760;28;91136;-91
2023/04/26 03:59:48;;;;;;;3.35;1.90;;;19.20;61.10;;;;;;4926404;28;91807;-91
2023/04/26 04:02:14;;;;;;;2.05;1.40;;;19.20;61.30;;;;;;4941711;28;87111;-91
2023/04/26 04:04:39;;;;;;;1.95;1.50;;;19.20;61.10;;;;;;4964735;28;89817;-90
2023/04/26 04:07:05;;;;;;;1.92;1.60;;;19.20;61.10;;;;;;4963977;28;91364;-90
2023/04/26 04:09:31;;;;;;;2.92;1.90;;;19.20;61.00;;;;;;4963473;28;89908;-91
2023/04/26 04:11:57;;;;;;;2.67;1.73;;;19.20;61.00;;;;;;4941976;28;88342;-91
2023/04/26 04:14:22;;;;;;;3.42;1.88;;;19.20;61.00;;;;;;4934944;28;90419;-90
2023/04/26 04:16:48;;;;;;;1.60;1.50;;;19.10;60.90;;;;;;4925928;28;89847;-91
2023/04/26 04:19:14;;;;;;;3.30;1.60;;;19.20;61.10;;;;;;4927315;28;91491;-90
2023/04/26 04:21:41;;;;;;;2.67;1.45;;;19.20;61.00;;;;;;4926652;28;87446;-91
2023/04/26 04:24:07;;;;;;;2.03;1.67;;;19.10;61.00;;;;;;4925920;28;90568;-90
2023/04/26 04:26:33;;;;;;;2.35;1.50;;;19.10;60.80;;;;;;4925561;28;88985;-90
2023/04/26 04:29:07;;;;;;;2.03;1.50;;;19.10;61.00;;;;;;4926217;28;90116;-91
2023/04/26 04:31:36;;;;;;;2.70;1.70;;;19.10;60.90;;;;;;4926648;28;86999;-92
2023/04/26 04:34:02;;;;;;;1.88;1.40;;;19.10;60.90;;;;;;4927084;28;89133;-90
2023/04/26 04:36:27;;;;;;;2.70;1.67;;;19.10;61.10;;;;;;4924682;28;90780;-91
2023/04/26 04:38:53;;;;;;;1.77;1.40;;;19.10;60.90;;;;;;4926221;28;92218;-89
2023/04/26 04:41:22;;;;;;;2.22;1.50;;;19.10;60.90;;;;;;4926351;28;87633;-90
2023/04/26 04:43:48;;;;;;;2.85;1.77;;;19.10;60.90;;;;;;4925510;28;90493;-90
2023/04/26 04:46:14;;;;;;;1.90;1.60;;;19.10;60.90;;;;;;4927248;28;90345;-91
2023/04/26 04:48:40;;;;;;;3.15;1.42;;;19.10;61.00;;;;;;4929383;28;91245;-92
2023/04/26 04:51:06;;;;;;;2.60;1.50;;;19.10;60.90;;;;;;4962281;28;87326;-89
2023/04/26 04:53:32;;;;;;;1.88;1.33;;;19.10;60.90;;;;;;4962342;28;89416;-89
2023/04/26 04:55:58;;;;;;;2.17;1.60;;;19.00;60.70;;;;;;4959482;28;90205;-89
2023/04/26 04:58:24;;;;;;;2.05;1.60;;;19.10;60.90;;;;;;4960587;28;91876;-90
2023/04/26 05:00:53;;;;;;;2.42;1.65;;;19.10;60.80;;;;;;4960060;28;88434;-89
2023/04/26 05:03:18;;;;;;;1.67;1.40;;;19.00;60.80;;;;;;4959859;28;88846;-91
2023/04/26 05:05:44;;;;;;;1.98;1.55;;;19.10;60.90;;;;;;4960995;28;91190;-91
2023/04/26 05:08:10;;;;;;;1.60;1.40;;;19.10;60.90;;;;;;4960393;28;88969;-90
2023/04/26 05:10:38;;;;;;;2.00;1.60;;;19.10;60.70;;;;;;4962860;28;87172;-91
2023/04/26 05:13:05;;;;;;;2.75;1.67;;;19.10;60.70;;;;;;4962835;28;89892;-91
2023/04/26 05:15:30;;;;;;;1.83;1.40;;;19.10;60.90;;;;;;4961890;28;92258;-90
2023/04/26 05:17:58;;;;;;;2.05;1.33;;;19.10;60.70;;;;;;4963023;28;90841;-92
2023/04/26 05:20:24;;;;;;;1.55;1.45;;;19.10;60.50;;;;;;4954334;28;86969;-90
2023/04/26 05:22:50;;;;;;;2.35;1.45;;;19.10;60.60;;;;;;4962542;28;95263;-90
2023/04/26 05:25:16;;;;;;;2.03;1.48;;;19.20;60.70;;;;;;4963403;28;92555;-91
2023/04/26 05:27:44;;;;;;;1.95;1.45;;;19.20;60.60;;;;;;4961762;28;90954;-90
2023/04/26 05:30:10;;;;;;;2.35;1.50;;;19.30;60.40;;;;;;4962235;28;87868;-90
2023/04/26 05:32:36;;;;;;;2.40;1.40;;;19.40;60.10;;;;;;4961765;28;89464;-92
2023/04/26 05:35:01;;;;;;;1.80;1.45;;;19.40;59.80;;;;;;4962853;28;91672;-89
2023/04/26 05:37:27;;;;;;;2.15;1.70;;;19.60;59.60;;;;;;4962489;28;89778;-90
2023/04/26 05:39:53;;;;;;;2.08;1.30;;;19.60;59.30;;;;;;4962017;28;87664;-90
2023/04/26 05:42:18;;;;;;;3.13;1.83;;;19.70;59.20;;;;;;4962051;28;89376;-89
2023/04/26 05:44:44;;;;;;;1.45;1.23;;;19.70;59.20;;;;;;4961868;28;90249;-90
2023/04/26 05:47:19;;;;;;;3.42;1.70;;;19.60;59.20;;;;;;4961419;28;88690;-91
2023/04/26 05:49:45;;;;;;;1.70;1.30;;;19.60;59.50;;;;;;4961363;28;88618;-91
2023/04/26 05:52:11;;;;;;;2.33;1.58;;;19.60;59.70;;;;;;4963065;28;90417;-88
2023/04/26 05:54:36;;;;;;;1.33;1.23;;;19.60;59.70;;;;;;4961548;28;90166;-87
2023/04/26 05:57:02;;;;;;;2.80;1.80;;;19.60;59.50;;;;;;4963108;28;87647;-89
2023/04/26 05:59:31;;;;;;;2.13;1.80;;;19.60;59.70;;;;;;4952757;28;87575;-87
2023/04/26 06:01:57;;;;;;;2.05;1.42;;;19.60;59.60;;;;;;4960946;28;89395;-91
2023/04/26 06:04:23;;;;;;;2.70;1.80;;;19.60;59.70;;;;;;4962564;28;90641;-93
2023/04/26 06:06:49;;;;;;;4.05;2.25;;;19.60;60.20;;;;;;4961519;28;89523;-90
2023/04/26 06:09:15;;;;;;;2.33;2.08;;;19.60;60.50;;;;;;4963222;28;87268;-91
2023/04/26 06:11:40;;;;;;;3.28;2.50;;;19.70;60.10;;;;;;4952663;28;89178;-88
2023/04/26 06:14:06;;;;;;;2.80;1.90;;;19.60;60.00;;;;;;4961085;28;89221;-91
2023/04/26 06:16:32;;;;;;;3.88;2.45;;;19.60;60.10;;;;;;4960624;28;90730;-94
2023/04/26 06:18:57;;;;;;;5.15;2.55;;;19.60;60.70;;;;;;4962620;28;87460;-94
2023/04/26 06:21:23;;;;;;;3.47;2.30;;;19.70;61.00;;;;;;4962089;28;91061;-91
2023/04/26 06:23:49;;;;;;;4.20;2.20;;;19.80;61.20;;;;;;4961051;28;90486;-90
2023/04/26 06:26:14;;;;;;;2.95;2.08;;;19.80;60.80;;;;;;4959011;28;90243;-92
2023/04/26 06:28:40;;;;;;;3.38;2.40;;;19.80;60.80;;;;;;4957393;28;87562;-91
2023/04/26 06:31:06;;;;;;;3.38;2.75;;;19.80;61.30;;;;;;4959054;28;89022;-91
2023/04/26 06:33:50;;;;;;;4.47;2.60;;;19.70;61.30;;;;;;4957713;28;91985;-91
2023/04/26 06:36:15;;;;;;;5.78;2.67;;;19.70;61.60;;;;;;4943197;28;91215;-90
2023/04/26 06:38:41;;;;;;;7.22;2.80;;;19.70;61.80;;;;;;4958514;28;88273;-92
2023/04/26 06:41:07;;;;;;;5.95;2.92;;;19.70;61.90;;;;;;4959808;28;90132;-91
2023/04/26 06:43:33;;;;;;;4.63;2.47;;;19.80;61.20;;;;;;4961626;28;91090;-92
2023/04/26 06:45:59;;;;;;;3.20;2.63;;;19.70;61.10;;;;;;4952717;28;89953;-92
2023/04/26 06:48:24;;;;;;;4.00;2.60;;;19.70;61.10;;;;;;4961597;28;87358;-91
2023/04/26 06:50:50;;;;;;;2.83;2.28;;;19.70;61.40;;;;;;4961454;28;89061;-91
2023/04/26 06:53:16;;;;;;;4.03;2.50;;;19.60;61.50;;;;;;4954188;28;90149;-92
2023/04/26 06:55:41;;;;;;;8.40;3.17;;;19.60;61.50;;;;;;4961013;28;91397;-90
2023/04/26 06:58:07;;;;;;;3.13;2.72;;;19.70;59.30;;;;;;4962967;28;86994;-89
2023/04/26 07:00:33;;;;;;;4.70;2.67;;;19.70;61.30;;;;;;4960393;28;88438;-92
2023/04/26 07:03:02;;;;;;;8.27;2.60;;;19.60;61.40;;;;;;4959802;28;92472;-90
2023/04/26 07:05:27;;;;;;;5.35;3.58;;;19.80;61.40;;;;;;4962105;28;92811;-91
2023/04/26 07:07:53;;;;;;;8.35;3.45;;;19.90;60.80;;;;;;4951513;28;86858;-91
2023/04/26 07:10:20;;;;;;;10.02;3.33;;;20.00;60.10;;;;;;4962751;28;90366;-91
2023/04/26 07:12:48;;;;;;;10.23;4.22;;;20.10;59.90;;;;;;4961426;28;91333;-90
2023/04/26 07:15:13;;;;;;;11.60;3.80;;;20.10;60.00;;;;;;4953162;28;90261;-90
2023/04/26 07:17:39;;;;;;;6.88;3.45;;;20.20;60.00;;;;;;4961850;28;87484;-90
2023/04/26 07:20:06;;;;;;;10.18;3.50;;;20.30;59.80;;;;;;4960940;28;89874;-89
2023/04/26 07:22:33;;;;;;;9.25;3.97;;;20.30;59.60;;;;;;4954409;28;92315;-91
2023/04/26 07:24:59;;;;;;;11.70;4.07;;;20.40;59.50;;;;;;4965444;28;90961;-91
2023/04/26 07:27:25;;;;;;;15.18;4.63;;;20.50;59.50;;;;;;4964308;28;88038;-91
2023/04/26 07:29:54;;;;;;;10.63;3.92;;;20.50;59.40;;;;;;4964058;28;90409;-90
2023/04/26 07:32:20;;;;;;;9.15;3.45;;;20.50;59.20;;;;;;4963762;28;91315;-91
2023/04/26 07:34:46;;;;;;;9.23;4.18;;;20.50;59.50;;;;;;4965022;28;90966;-91
2023/04/26 07:37:12;;;;;;;10.85;4.65;;;20.50;59.30;;;;;;4966119;28;87587;-90
2023/04/26 07:39:37;;;;;;;8.70;3.78;;;20.50;59.30;;;;;;4963385;28;89196;-91
2023/04/26 07:42:03;;;;;;;13.88;4.53;;;20.50;59.40;;;;;;4963675;28;90394;-91
2023/04/26 07:44:29;;;;;;;9.48;4.05;;;20.50;59.30;;;;;;4947439;28;89870;-90
2023/04/26 07:46:55;;;;;;;8.85;3.40;;;20.50;59.50;;;;;;4960037;28;87480;-91
2023/04/26 07:49:20;;;;;;;10.55;4.40;;;20.50;59.20;;;;;;4952780;28;87423;-90
2023/04/26 07:51:50;;;;;;;12.27;4.50;;;20.40;59.20;;;;;;4960571;28;91519;-91
2023/04/26 07:54:16;;;;;;;8.93;4.05;;;20.30;59.30;;;;;;4960153;28;92164;-88
2023/04/26 07:56:42;;;;;;;18.67;4.65;;;20.30;59.40;;;;;;4960582;28;86997;-91
2023/04/26 07:59:07;;;;;;;11.18;4.45;;;20.30;58.80;;;;;;4956062;28;90074;-89
2023/04/26 08:01:33;;;;;;;10.35;4.10;;;20.20;59.10;;;;;;4963610;28;90360;-90
2023/04/26 08:03:59;;;;;;;11.43;4.47;;;20.30;59.50;;;;;;4962332;28;90337;-91
2023/04/26 08:06:25;;;;;;;9.38;4.43;;;20.30;59.20;;;;;;4946141;28;87111;-91
2023/04/26 08:08:52;;;;;;;10.80;4.22;;;20.30;59.30;;;;;;4973423;23;89322;-91
2023/04/26 08:11:18;;;;;;;13.23;4.57;;;20.30;59.50;;;;;;4896030;28;90755;-90
2023/04/26 08:13:43;;;;;;;11.25;4.25;;;20.40;59.40;;;;;;4895340;28;90517;-95
2023/04/26 08:16:12;;;;;;;16.02;5.15;;;20.40;59.40;;;;;;4897233;28;87949;-92
2023/04/26 08:18:38;;;;;;;14.40;4.65;;;20.50;55.20;;;;;;4895022;28;87434;-90
2023/04/26 08:21:04;;;;;;;17.83;4.45;;;20.60;54.10;;;;;;4894591;28;90134;-92
2023/04/26 08:23:36;;;;;;;12.48;4.47;;;20.60;53.90;;;;;;4895134;28;90095;-91
2023/04/26 08:26:02;;;;;;;11.98;4.43;;;20.60;53.00;;;;;;4888926;28;87533;-93
2023/04/26 08:28:28;;;;;;;16.30;4.75;;;20.70;52.60;;;;;;4894695;28;88902;-91
2023/04/26 08:30:54;;;;;;;11.10;4.25;;;20.70;52.60;;;;;;4895524;28;89924;-87
2023/04/26 08:33:19;;;;;;;12.38;4.38;;;20.70;51.70;;;;;;4894404;28;87949;-91
2023/04/26 08:35:46;;;;;;;15.70;4.57;;;20.70;51.50;;;;;;4895058;28;87332;-91
2023/04/26 08:38:11;;;;;;;11.80;4.13;;;20.70;51.10;;;;;;4895319;28;89580;-91
2023/04/26 08:40:37;;;;;;;9.18;4.10;;;20.70;51.50;;;;;;4894437;28;92161;-92
2023/04/26 08:43:03;;;;;;;13.10;5.13;;;20.70;50.90;;;;;;4922342;28;92005;-91
2023/04/26 08:45:36;;;;;;;13.25;5.13;;;20.80;54.50;;;;;;4944121;28;87519;-91
2023/04/26 08:48:10;;;;;;;11.88;4.82;;;20.70;55.70;;;;;;4943871;28;90526;-91
2023/04/26 08:50:38;;;;;;;8.65;4.72;;;20.60;56.60;;;;;;4943814;28;91072;-90
2023/04/26 08:53:05;;;;;;;12.88;4.32;;;20.60;57.20;;;;;;4943252;28;90060;-89
2023/04/26 08:55:32;;;;;;;14.00;4.47;;;20.60;57.10;;;;;;4927023;28;87573;-88
2023/04/26 08:58:01;;;;;;;11.95;5.18;;;20.60;57.10;;;;;;4927897;28;89094;-89
2023/04/26 09:00:27;;;;;;;25.23;6.77;;;20.60;56.70;;;;;;4926934;28;90307;-92
2023/04/26 09:02:52;;;;;;;39.35;10.90;;;20.60;56.10;;;;;;4933495;28;90032;-93
2023/04/26 09:05:25;;;;;;;68.78;17.10;;;20.60;55.80;;;;;;4926043;28;88423;-92
2023/04/26 09:07:56;;;;;;;116.75;28.02;;;20.60;55.90;;;;;;4942793;28;90009;-90
2023/04/26 09:10:22;;;;;;;127.95;31.15;;;20.60;55.40;;;;;;4943496;28;90415;-91
2023/04/26 09:12:55;;;;;;;170.63;39.95;;;20.50;55.90;;;;;;4926390;28;91022;-93
2023/04/26 09:15:23;;;;;;;138.18;32.72;;;20.50;56.60;;;;;;4942435;28;87725;-88
2023/04/26 09:17:50;;;;;;;123.50;31.17;;;20.50;56.40;;;;;;4941961;28;90172;-93
2023/04/26 09:20:24;;;;;;;123.35;31.80;;;20.50;55.70;;;;;;4933998;28;90673;-90
2023/04/26 09:22:52;;;;;;;123.53;32.50;;;20.40;56.90;;;;;;4941749;28;91453;-92
2023/04/26 09:25:29;;;;;;;123.88;31.17;;;20.40;57.30;;;;;;4934799;28;87093;-91
2023/04/26 09:27:55;;;;;;;105.35;29.60;;;20.30;57.50;;;;;;4941539;28;89159;-92
2023/04/26 09:30:25;;;;;;;105.68;28.60;;;20.30;57.90;;;;;;4941322;28;91483;-88
2023/04/26 09:32:58;;;;;;;110.07;28.95;;;20.20;57.80;;;;;;4941818;28;91003;-91
2023/04/26 09:35:34;;;;;;;101.47;27.77;;;20.20;57.90;;;;;;4941748;28;86908;-91
2023/04/26 09:38:21;;;;;;;106.35;28.98;;;20.20;58.00;;;;;;4934553;28;89347;-89
2023/04/26 09:40:49;;;;;;;103.35;29.08;;;20.20;58.10;;;;;;4942664;28;91435;-94
2023/04/26 09:43:17;;;;;;;99.03;28.65;;;20.20;58.20;;;;;;4941798;28;89534;-92
2023/04/26 09:45:51;;;;;;;92.85;28.25;;;20.20;58.30;;;;;;4941540;28;87122;-93
2023/04/26 09:48:33;;;;;;;110.03;27.27;;;20.20;58.40;;;;;;4941658;28;90440;-95
2023/04/26 09:51:09;;;;;;;94.07;26.83;;;20.30;58.40;;;;;;4941998;28;90396;-94
2023/04/26 09:53:35;;;;;;;97.25;29.95;;;20.30;58.40;;;;;;4925364;28;91348;-92
2023/04/26 09:56:12;;;;;;;90.00;26.30;;;20.30;58.60;;;;;;4932938;28;88368;-95
2023/04/26 09:58:50;;;;;;;98.43;26.25;;;20.40;58.50;;;;;;4942332;28;89294;-95
2023/04/26 10:01:18;;;;;;;94.28;27.52;;;20.40;58.50;;;;;;4943405;28;89250;-92
2023/04/26 10:03:45;;;;;;;89.03;28.48;;;20.40;58.60;;;;;;4941275;28;90147;-92
2023/04/26 10:06:14;;;;;;;92.43;27.08;;;20.30;58.70;;;;;;4940711;28;88143;-95
2023/04/26 10:08:41;;;;;;;97.60;26.42;;;20.20;58.80;;;;;;4940312;28;90172;-94
2023/04/26 10:11:09;;;;;;;89.25;25.20;;;20.20;58.80;;;;;;4941446;28;90433;-96
2023/04/26 10:13:35;;;;;;;84.68;23.88;;;20.20;59.00;;;;;;4941659;28;92269;-91
2023/04/26 10:16:03;;;;;;;93.25;25.60;;;20.10;59.10;;;;;;4926284;28;87395;-93
2023/04/26 10:18:30;;;;;;;83.10;24.90;;;20.10;59.30;;;;;;4940749;28;90199;-94
2023/04/26 10:21:06;;;;;;;75.57;23.40;;;20.10;59.10;;;;;;4932909;28;92074;-93
2023/04/26 10:23:32;;;;;;;79.30;24.88;;;20.10;59.30;;;;;;4933827;28;91000;-91
2023/04/26 10:26:10;;;;;;;78.40;23.48;;;20.10;59.40;;;;;;4901767;28;87376;-92
2023/04/26 10:28:45;;;;;;;85.38;25.80;;;20.20;58.90;;;;;;4904371;28;89275;-89
2023/04/26 10:31:11;;;;;;;78.38;24.95;;;20.20;59.00;;;;;;4886154;28;89369;-88
2023/04/26 10:33:37;;;;;;;75.15;21.45;;;20.30;58.70;;;;;;4886121;28;90086;-93
2023/04/26 10:36:28;;;;;;;70.05;24.17;;;20.40;58.60;;;;;;4885630;28;87011;-91
2023/04/26 10:39:17;;;;;;;68.95;22.20;;;20.60;58.80;;;;;;4862537;28;89024;-89
2023/04/26 10:41:43;;;;;;;;;;;20.70;59.10;;;;;;4879103;28;91478;-93
2023/04/26 10:44:38;;;;;;;67.45;22.08;;;20.80;59.00;;;;;;4879792;28;90536;-89
2023/04/26 10:47:06;;;;;;;65.28;21.23;;;21.00;58.90;;;;;;4864980;28;88382;-92
2023/04/26 10:52:58;;;;;;;71.35;22.17;;;21.10;58.80;;;;;;2005389;23;90374;-89
2023/04/26 10:55:41;;;;;;;60.80;19.50;;;21.20;58.80;;;;;;4950605;28;88347;-89
2023/04/26 10:58:28;;;;;;;72.53;21.58;;;21.30;58.80;;;;;;4949625;28;87427;-93
2023/04/26 11:01:16;;;;;;;56.38;19.73;;;21.30;59.20;;;;;;4947159;28;89740;-92
2023/04/26 11:04:02;;;;;;;55.33;17.55;;;21.30;59.20;;;;;;4953278;28;88513;-94
2023/04/26 11:06:50;;;;;;;59.03;19.00;;;21.30;59.30;;;;;;4938779;28;90364;-92
2023/04/26 11:09:39;;;;;;;61.22;20.60;;;21.30;59.40;;;;;;4956173;28;86736;-93
2023/04/26 11:12:14;;;;;;;55.88;18.90;;;21.20;60.30;;;;;;4949149;28;87534;-90
2023/04/26 11:14:44;;;;;;;51.60;17.67;;;21.20;59.50;;;;;;4930664;28;91559;-92
2023/04/26 11:17:11;;;;;;;46.47;15.98;;;21.20;59.40;;;;;;4907257;28;90740;-93
2023/04/26 11:19:36;;;;;;;59.55;18.10;;;21.20;57.70;;;;;;4889858;28;87470;-90
2023/04/26 11:22:05;;;;;;;52.05;18.58;;;21.20;58.60;;;;;;4890926;28;89807;-92
2023/04/26 11:24:32;;;;;;;46.90;16.67;;;21.20;59.00;;;;;;4891717;28;90903;-92
2023/04/26 11:26:58;;;;;;;49.20;17.48;;;21.20;59.30;;;;;;4906851;28;90576;-93
2023/04/26 11:29:25;;;;;;;47.10;16.63;;;21.10;59.30;;;;;;4891656;28;87319;-94
2023/04/26 11:31:55;;;;;;;53.05;17.73;;;21.10;59.20;;;;;;4905500;28;86745;-94
2023/04/26 11:34:31;;;;;;;53.03;16.90;;;21.10;58.10;;;;;;4887831;28;90658;-95
2023/04/26 11:36:57;;;;;;;45.97;15.93;;;21.10;58.60;;;;;;4904057;28;91363;-94
2023/04/26 11:39:23;;;;;;;45.55;15.88;;;21.10;58.80;;;;;;4889478;28;87951;-93
2023/04/26 11:41:48;;;;;;;48.65;16.63;;;21.10;59.10;;;;;;4888771;28;89308;-92
2023/04/26 11:44:20;;;;;;;40.83;14.48;;;21.20;58.50;;;;;;4905014;28;88090;-93
2023/04/26 11:46:47;;;;;;;40.50;14.63;;;21.20;58.30;;;;;;4904457;28;88471;-92
2023/04/26 11:49:15;;;;;;;41.38;13.90;;;21.20;57.30;;;;;;4921111;28;87631;-92
2023/04/26 11:51:41;;;;;;;45.67;15.45;;;21.10;57.50;;;;;;4943435;28;87344;-91
2023/04/26 11:54:06;;;;;;;43.17;13.98;;;21.20;58.20;;;;;;4944058;28;87420;-93
2023/04/26 11:56:32;;;;;;;45.45;14.10;;;21.20;58.50;;;;;;4923064;28;89714;-88
2023/04/26 11:58:58;;;;;;;44.00;15.68;;;21.20;58.30;;;;;;4941169;28;87343;-92
2023/04/26 12:01:26;;;;;;;46.10;14.25;;;21.30;58.20;;;;;;4944847;28;87385;-94
2023/04/26 12:03:56;;;;;;;51.97;15.27;;;21.40;58.30;;;;;;4927778;28;91650;-95
2023/04/26 12:06:40;;;;;;;33.50;13.20;;;21.40;57.80;;;;;;4933581;28;92329;-95
2023/04/26 12:09:10;;;;;;;47.65;14.52;;;21.50;57.90;;;;;;4931278;28;87550;-94
2023/04/26 12:11:38;;;;;;;35.67;13.73;;;21.50;58.00;;;;;;4958694;28;87325;-95
2023/04/26 12:14:04;;;;;;;41.00;13.15;;;21.60;57.90;;;;;;4955087;28;87640;-96
2023/04/26 12:16:32;;;;;;;36.17;12.63;;;21.60;57.80;;;;;;4951135;28;87474;-95
2023/04/26 12:18:58;;;;;;;40.80;14.30;;;21.60;57.80;;;;;;4934178;28;89911;-94
2023/04/26 12:21:27;;;;;;;37.95;12.90;;;21.70;57.70;;;;;;4950144;28;86413;-94
2023/04/26 12:23:56;;;;;;;41.15;12.75;;;21.70;57.70;;;;;;5163584;23;90758;-93
2023/04/26 12:26:44;;;;;;;33.22;12.40;;;21.70;57.70;;;;;;4952782;28;91136;-92
2023/04/26 12:29:10;;;;;;;42.85;13.07;;;21.70;57.40;;;;;;4955663;28;88736;-93
2023/04/26 12:31:39;;;;;;;40.00;12.13;;;21.80;56.80;;;;;;4946879;28;86891;-94
2023/04/26 12:34:04;;;;;;;34.58;11.43;;;21.80;57.00;;;;;;4952956;28;90683;-88
2023/04/26 12:36:30;;;;;;;36.78;12.85;;;21.80;56.50;;;;;;4939142;28;90180;-95
2023/04/26 12:39:02;;;;;;;30.83;11.95;;;21.70;57.10;;;;;;4962891;28;86724;-91
2023/04/26 12:41:33;;;;;;;34.70;12.80;;;21.70;57.00;;;;;;4965066;28;87169;-92
2023/04/26 12:43:59;;;;;;;39.70;11.70;;;21.70;57.40;;;;;;4992983;23;90842;-93
2023/04/26 12:46:27;;;;;;;28.50;10.93;;;21.60;57.40;;;;;;4980620;28;90470;-92
2023/04/26 12:49:04;;;;;;;29.38;11.77;;;21.60;57.50;;;;;;4980067;28;86697;-93
2023/04/26 12:51:35;;;;;;;29.98;11.80;;;21.50;57.50;;;;;;4941408;28;86974;-93
2023/04/26 12:54:01;;;;;;;30.00;11.77;;;21.50;57.70;;;;;;4944480;28;91449;-92
2023/04/26 12:56:48;;;;;;;33.10;12.90;;;21.50;57.80;;;;;;4938652;28;91237;-91